sensor_id;sensor_type;location;lat;lon;timestamp;pressure;altitude;pressure_sealevel;temperature;humidity
62632;BME280;48703;51.248;-0.546;2023-05-13T00:00:14;101941;;;10.26;93.42
62632;BME280;48703;51.248;-0.546;2023-05-13T00:03:17;101937;;;10.27;93.43
62632;BME280;48703;51.248;-0.546;2023-05-13T00:06:18;101938;;;10.26;93.59
62632;BME280;48703;51.248;-0.546;2023-05-13T00:09:20;101939;;;10.24;93.95
62632;BME280;48703;51.248;-0.546;2023-05-13T00:12:22;101939;;;10.21;94.04
62632;BME280;48703;51.248;-0.546;2023-05-13T00:15:24;101943;;;10.19;94.23
62632;BME280;48703;51.248;-0.546;2023-05-13T00:18:26;101945;;;10.20;94.07
62632;BME280;48703;51.248;-0.546;2023-05-13T00:21:28;101941;;;10.19;94.08
62632;BME280;48703;51.248;-0.546;2023-05-13T00:24:31;101938;;;10.18;94.04
62632;BME280;48703;51.248;-0.546;2023-05-13T00:27:32;101941;;;10.13;94.47
62632;BME280;48703;51.248;-0.546;2023-05-13T00:30:34;101937;;;10.12;94.34
62632;BME280;48703;51.248;-0.546;2023-05-13T00:33:36;101926;;;10.08;94.37
62632;BME280;48703;51.248;-0.546;2023-05-13T00:36:38;101920;;;10.06;94.42
62632;BME280;48703;51.248;-0.546;2023-05-13T00:39:40;101919;;;10.05;94.37
62632;BME280;48703;51.248;-0.546;2023-05-13T00:42:42;101924;;;10.07;94.02
62632;BME280;48703;51.248;-0.546;2023-05-13T00:45:44;101927;;;10.08;94.04
62632;BME280;48703;51.248;-0.546;2023-05-13T00:48:47;101923;;;10.08;94.03
62632;BME280;48703;51.248;-0.546;2023-05-13T00:51:48;101921;;;10.08;93.98
62632;BME280;48703;51.248;-0.546;2023-05-13T00:54:50;101922;;;10.04;94.14
62632;BME280;48703;51.248;-0.546;2023-05-13T00:57:52;101924;;;10.02;94.29
62632;BME280;48703;51.248;-0.546;2023-05-13T01:00:56;101926;;;9.99;94.48
62632;BME280;48703;51.248;-0.546;2023-05-13T01:03:59;101920;;;9.95;94.55
62632;BME280;48703;51.248;-0.546;2023-05-13T01:07:01;101925;;;9.93;94.79
62632;BME280;48703;51.248;-0.546;2023-05-13T01:10:02;101928;;;9.95;94.71
62632;BME280;48703;51.248;-0.546;2023-05-13T01:13:04;101933;;;9.94;94.66
62632;BME280;48703;51.248;-0.546;2023-05-13T01:16:09;101930;;;9.93;94.72
62632;BME280;48703;51.248;-0.546;2023-05-13T01:19:18;101927;;;9.93;94.76
62632;BME280;48703;51.248;-0.546;2023-05-13T01:22:09;101924;;;9.92;95.11
62632;BME280;48703;51.248;-0.546;2023-05-13T01:25:11;101917;;;9.89;95.15
62632;BME280;48703;51.248;-0.546;2023-05-13T01:28:13;101917;;;9.89;95.16
62632;BME280;48703;51.248;-0.546;2023-05-13T01:31:15;101912;;;9.90;94.99
62632;BME280;48703;51.248;-0.546;2023-05-13T01:34:17;101910;;;9.89;95.04
62632;BME280;48703;51.248;-0.546;2023-05-13T01:37:19;101914;;;9.88;95.05
62632;BME280;48703;51.248;-0.546;2023-05-13T01:40:21;101917;;;9.87;95.01
62632;BME280;48703;51.248;-0.546;2023-05-13T01:43:23;101916;;;9.83;95.15
62632;BME280;48703;51.248;-0.546;2023-05-13T01:46:25;101919;;;9.84;95.05
62632;BME280;48703;51.248;-0.546;2023-05-13T01:49:27;101921;;;9.84;95.12
62632;BME280;48703;51.248;-0.546;2023-05-13T01:52:29;101924;;;9.82;95.14
62632;BME280;48703;51.248;-0.546;2023-05-13T01:55:31;101927;;;9.82;95.12
62632;BME280;48703;51.248;-0.546;2023-05-13T01:58:33;101930;;;9.82;95.05
62632;BME280;48703;51.248;-0.546;2023-05-13T02:01:35;101931;;;9.82;95.07
62632;BME280;48703;51.248;-0.546;2023-05-13T02:04:37;101929;;;9.82;94.87
62632;BME280;48703;51.248;-0.546;2023-05-13T02:07:39;101927;;;9.81;95.02
62632;BME280;48703;51.248;-0.546;2023-05-13T02:10:41;101928;;;9.79;94.75
62632;BME280;48703;51.248;-0.546;2023-05-13T02:13:43;101930;;;9.78;94.57
62632;BME280;48703;51.248;-0.546;2023-05-13T02:16:45;101926;;;9.77;94.63
62632;BME280;48703;51.248;-0.546;2023-05-13T02:19:47;101930;;;9.78;94.60
62632;BME280;48703;51.248;-0.546;2023-05-13T02:22:49;101927;;;9.76;94.71
62632;BME280;48703;51.248;-0.546;2023-05-13T02:25:51;101931;;;9.72;95.09
62632;BME280;48703;51.248;-0.546;2023-05-13T02:28:54;101933;;;9.71;95.05
62632;BME280;48703;51.248;-0.546;2023-05-13T02:31:55;101931;;;9.70;95.02
62632;BME280;48703;51.248;-0.546;2023-05-13T02:34:57;101934;;;9.70;95.06
62632;BME280;48703;51.248;-0.546;2023-05-13T02:37:59;101934;;;9.68;95.15
62632;BME280;48703;51.248;-0.546;2023-05-13T02:41:01;101931;;;9.66;95.19
62632;BME280;48703;51.248;-0.546;2023-05-13T02:44:03;101928;;;9.63;95.22
62632;BME280;48703;51.248;-0.546;2023-05-13T02:47:05;101930;;;9.63;95.39
62632;BME280;48703;51.248;-0.546;2023-05-13T02:50:07;101929;;;9.63;95.20
62632;BME280;48703;51.248;-0.546;2023-05-13T02:53:09;101930;;;9.62;95.21
62632;BME280;48703;51.248;-0.546;2023-05-13T02:56:11;101928;;;9.61;95.13
62632;BME280;48703;51.248;-0.546;2023-05-13T02:59:13;101928;;;9.59;95.32
62632;BME280;48703;51.248;-0.546;2023-05-13T03:02:15;101925;;;9.58;95.23
62632;BME280;48703;51.248;-0.546;2023-05-13T03:05:17;101926;;;9.57;95.11
62632;BME280;48703;51.248;-0.546;2023-05-13T03:08:19;101927;;;9.54;95.15
62632;BME280;48703;51.248;-0.546;2023-05-13T03:11:21;101926;;;9.53;95.16
62632;BME280;48703;51.248;-0.546;2023-05-13T03:14:23;101928;;;9.52;95.12
62632;BME280;48703;51.248;-0.546;2023-05-13T03:17:25;101927;;;9.51;95.26
62632;BME280;48703;51.248;-0.546;2023-05-13T03:20:27;101927;;;9.51;95.36
62632;BME280;48703;51.248;-0.546;2023-05-13T03:23:30;101927;;;9.51;95.25
62632;BME280;48703;51.248;-0.546;2023-05-13T03:26:31;101930;;;9.51;95.31
62632;BME280;48703;51.248;-0.546;2023-05-13T03:29:33;101930;;;9.49;95.18
62632;BME280;48703;51.248;-0.546;2023-05-13T03:32:35;101929;;;9.45;95.32
62632;BME280;48703;51.248;-0.546;2023-05-13T03:35:38;101930;;;9.43;95.35
62632;BME280;48703;51.248;-0.546;2023-05-13T03:38:40;101931;;;9.42;95.28
62632;BME280;48703;51.248;-0.546;2023-05-13T03:41:42;101936;;;9.44;95.29
62632;BME280;48703;51.248;-0.546;2023-05-13T03:44:44;101941;;;9.43;95.06
62632;BME280;48703;51.248;-0.546;2023-05-13T03:47:46;101943;;;9.41;94.96
62632;BME280;48703;51.248;-0.546;2023-05-13T03:50:48;101941;;;9.41;94.95
62632;BME280;48703;51.248;-0.546;2023-05-13T03:53:50;101938;;;9.41;95.01
62632;BME280;48703;51.248;-0.546;2023-05-13T03:56:52;101947;;;9.41;94.90
62632;BME280;48703;51.248;-0.546;2023-05-13T03:59:54;101948;;;9.40;94.89
62632;BME280;48703;51.248;-0.546;2023-05-13T04:02:56;101951;;;9.39;95.04
62632;BME280;48703;51.248;-0.546;2023-05-13T04:05:58;101949;;;9.39;95.02
62632;BME280;48703;51.248;-0.546;2023-05-13T04:09:00;101948;;;9.38;95.15
62632;BME280;48703;51.248;-0.546;2023-05-13T04:12:02;101949;;;9.38;95.27
62632;BME280;48703;51.248;-0.546;2023-05-13T04:15:04;101949;;;9.37;95.04
62632;BME280;48703;51.248;-0.546;2023-05-13T04:18:06;101951;;;9.36;95.20
62632;BME280;48703;51.248;-0.546;2023-05-13T04:21:08;101954;;;9.35;95.12
62632;BME280;48703;51.248;-0.546;2023-05-13T04:24:10;101954;;;9.35;95.01
62632;BME280;48703;51.248;-0.546;2023-05-13T04:27:12;101950;;;9.34;94.98
62632;BME280;48703;51.248;-0.546;2023-05-13T04:30:14;101948;;;9.31;94.93
62632;BME280;48703;51.248;-0.546;2023-05-13T04:33:16;101946;;;9.32;95.10
62632;BME280;48703;51.248;-0.546;2023-05-13T04:36:18;101947;;;9.31;94.99
62632;BME280;48703;51.248;-0.546;2023-05-13T04:39:20;101950;;;9.28;94.89
62632;BME280;48703;51.248;-0.546;2023-05-13T04:42:22;101951;;;9.26;95.00
62632;BME280;48703;51.248;-0.546;2023-05-13T04:45:24;101956;;;9.27;94.95
62632;BME280;48703;51.248;-0.546;2023-05-13T04:48:26;101958;;;9.28;94.92
62632;BME280;48703;51.248;-0.546;2023-05-13T04:51:28;101961;;;9.26;94.91
62632;BME280;48703;51.248;-0.546;2023-05-13T04:54:30;101964;;;9.24;94.91
62632;BME280;48703;51.248;-0.546;2023-05-13T04:57:32;101966;;;9.23;94.95
62632;BME280;48703;51.248;-0.546;2023-05-13T05:00:34;101970;;;9.25;94.88
62632;BME280;48703;51.248;-0.546;2023-05-13T05:03:36;101969;;;9.25;94.79
62632;BME280;48703;51.248;-0.546;2023-05-13T05:06:38;101971;;;9.25;94.92
62632;BME280;48703;51.248;-0.546;2023-05-13T05:09:40;101973;;;9.24;95.00
62632;BME280;48703;51.248;-0.546;2023-05-13T05:12:42;101975;;;9.24;94.99
62632;BME280;48703;51.248;-0.546;2023-05-13T05:15:44;101977;;;9.22;94.99
62632;BME280;48703;51.248;-0.546;2023-05-13T05:18:46;101980;;;9.21;95.03
62632;BME280;48703;51.248;-0.546;2023-05-13T05:21:48;101978;;;9.19;95.10
62632;BME280;48703;51.248;-0.546;2023-05-13T05:24:50;101981;;;9.17;95.26
62632;BME280;48703;51.248;-0.546;2023-05-13T05:27:52;101983;;;9.15;95.49
62632;BME280;48703;51.248;-0.546;2023-05-13T05:30:54;101982;;;9.15;95.63
62632;BME280;48703;51.248;-0.546;2023-05-13T05:33:56;101983;;;9.17;95.47
62632;BME280;48703;51.248;-0.546;2023-05-13T05:36:58;101986;;;9.19;95.41
62632;BME280;48703;51.248;-0.546;2023-05-13T05:40:01;101986;;;9.18;95.34
62632;BME280;48703;51.248;-0.546;2023-05-13T05:43:02;101983;;;9.18;95.36
62632;BME280;48703;51.248;-0.546;2023-05-13T05:46:04;101987;;;9.19;95.29
62632;BME280;48703;51.248;-0.546;2023-05-13T05:49:06;101986;;;9.21;95.32
62632;BME280;48703;51.248;-0.546;2023-05-13T05:52:08;101986;;;9.22;95.17
62632;BME280;48703;51.248;-0.546;2023-05-13T05:55:10;101986;;;9.21;95.11
62632;BME280;48703;51.248;-0.546;2023-05-13T05:58:13;101986;;;9.21;95.29
62632;BME280;48703;51.248;-0.546;2023-05-13T06:01:14;101989;;;9.23;95.34
62632;BME280;48703;51.248;-0.546;2023-05-13T06:04:16;101991;;;9.21;95.09
62632;BME280;48703;51.248;-0.546;2023-05-13T06:07:18;101996;;;9.22;95.24
62632;BME280;48703;51.248;-0.546;2023-05-13T06:10:20;102001;;;9.25;95.11
62632;BME280;48703;51.248;-0.546;2023-05-13T06:13:23;102006;;;9.27;95.02
62632;BME280;48703;51.248;-0.546;2023-05-13T06:16:24;102011;;;9.27;95.10
62632;BME280;48703;51.248;-0.546;2023-05-13T06:19:27;102013;;;9.27;95.19
62632;BME280;48703;51.248;-0.546;2023-05-13T06:22:29;102018;;;9.29;95.18
62632;BME280;48703;51.248;-0.546;2023-05-13T06:25:31;102012;;;9.29;95.11
62632;BME280;48703;51.248;-0.546;2023-05-13T06:28:33;102009;;;9.31;95.10
62632;BME280;48703;51.248;-0.546;2023-05-13T06:31:35;102009;;;9.30;94.96
62632;BME280;48703;51.248;-0.546;2023-05-13T06:34:37;102013;;;9.30;94.99
62632;BME280;48703;51.248;-0.546;2023-05-13T06:37:39;102017;;;9.30;94.78
62632;BME280;48703;51.248;-0.546;2023-05-13T06:40:41;102018;;;9.31;94.88
62632;BME280;48703;51.248;-0.546;2023-05-13T06:43:43;102019;;;9.32;94.76
62632;BME280;48703;51.248;-0.546;2023-05-13T06:46:45;102020;;;9.33;94.76
62632;BME280;48703;51.248;-0.546;2023-05-13T06:49:47;102021;;;9.36;94.63
62632;BME280;48703;51.248;-0.546;2023-05-13T06:52:49;102024;;;9.38;94.93
62632;BME280;48703;51.248;-0.546;2023-05-13T06:55:51;102025;;;9.38;94.75
62632;BME280;48703;51.248;-0.546;2023-05-13T06:58:53;102025;;;9.38;94.76
62632;BME280;48703;51.248;-0.546;2023-05-13T07:01:55;102024;;;9.38;94.72
62632;BME280;48703;51.248;-0.546;2023-05-13T07:04:57;102019;;;9.39;94.82
62632;BME280;48703;51.248;-0.546;2023-05-13T07:07:59;102024;;;9.40;94.71
62632;BME280;48703;51.248;-0.546;2023-05-13T07:11:01;102026;;;9.41;94.76
62632;BME280;48703;51.248;-0.546;2023-05-13T07:14:03;102031;;;9.41;94.39
62632;BME280;48703;51.248;-0.546;2023-05-13T07:17:05;102033;;;9.41;94.48
62632;BME280;48703;51.248;-0.546;2023-05-13T07:20:07;102033;;;9.42;94.48
62632;BME280;48703;51.248;-0.546;2023-05-13T07:23:09;102034;;;9.41;94.58
62632;BME280;48703;51.248;-0.546;2023-05-13T07:26:11;102035;;;9.43;94.61
62632;BME280;48703;51.248;-0.546;2023-05-13T07:29:13;102036;;;9.45;94.60
62632;BME280;48703;51.248;-0.546;2023-05-13T07:32:15;102039;;;9.43;94.51
62632;BME280;48703;51.248;-0.546;2023-05-13T07:35:17;102041;;;9.47;94.45
62632;BME280;48703;51.248;-0.546;2023-05-13T07:38:19;102046;;;9.49;94.33
62632;BME280;48703;51.248;-0.546;2023-05-13T07:41:21;102053;;;9.48;94.13
62632;BME280;48703;51.248;-0.546;2023-05-13T07:44:23;102055;;;9.51;94.08
62632;BME280;48703;51.248;-0.546;2023-05-13T07:47:25;102058;;;9.50;93.86
62632;BME280;48703;51.248;-0.546;2023-05-13T07:50:27;102057;;;9.54;93.99
62632;BME280;48703;51.248;-0.546;2023-05-13T07:53:29;102057;;;9.56;93.76
62632;BME280;48703;51.248;-0.546;2023-05-13T07:56:31;102059;;;9.55;93.49
62632;BME280;48703;51.248;-0.546;2023-05-13T07:59:33;102057;;;9.56;93.73
62632;BME280;48703;51.248;-0.546;2023-05-13T08:02:35;102058;;;9.57;93.79
62632;BME280;48703;51.248;-0.546;2023-05-13T08:05:37;102062;;;9.58;93.73
62632;BME280;48703;51.248;-0.546;2023-05-13T08:08:39;102063;;;9.59;93.55
62632;BME280;48703;51.248;-0.546;2023-05-13T08:11:41;102066;;;9.60;93.44
62632;BME280;48703;51.248;-0.546;2023-05-13T08:14:43;102064;;;9.65;93.58
62632;BME280;48703;51.248;-0.546;2023-05-13T08:17:45;102064;;;9.69;93.30
62632;BME280;48703;51.248;-0.546;2023-05-13T08:20:47;102062;;;9.70;93.01
62632;BME280;48703;51.248;-0.546;2023-05-13T08:23:49;102061;;;9.71;93.05
62632;BME280;48703;51.248;-0.546;2023-05-13T08:26:51;102066;;;9.73;93.09
62632;BME280;48703;51.248;-0.546;2023-05-13T08:29:53;102069;;;9.77;93.19
62632;BME280;48703;51.248;-0.546;2023-05-13T08:32:55;102072;;;9.79;92.94
62632;BME280;48703;51.248;-0.546;2023-05-13T08:35:58;102068;;;9.80;93.12
62632;BME280;48703;51.248;-0.546;2023-05-13T08:38:59;102066;;;9.82;92.81
62632;BME280;48703;51.248;-0.546;2023-05-13T08:42:02;102066;;;9.88;92.83
62632;BME280;48703;51.248;-0.546;2023-05-13T08:45:04;102064;;;9.92;92.61
62632;BME280;48703;51.248;-0.546;2023-05-13T08:48:06;102063;;;9.96;92.58
62632;BME280;48703;51.248;-0.546;2023-05-13T08:51:08;102060;;;10.01;92.39
62632;BME280;48703;51.248;-0.546;2023-05-13T08:54:09;102059;;;10.06;92.50
62632;BME280;48703;51.248;-0.546;2023-05-13T08:57:12;102058;;;10.11;92.76
62632;BME280;48703;51.248;-0.546;2023-05-13T09:00:14;102055;;;10.15;92.26
62632;BME280;48703;51.248;-0.546;2023-05-13T09:03:16;102054;;;10.17;91.91
62632;BME280;48703;51.248;-0.546;2023-05-13T09:06:18;102053;;;10.23;92.06
62632;BME280;48703;51.248;-0.546;2023-05-13T09:09:20;102054;;;10.26;91.97
62632;BME280;48703;51.248;-0.546;2023-05-13T09:12:54;102054;;;10.29;91.89
62632;BME280;48703;51.248;-0.546;2023-05-13T09:15:24;102058;;;10.34;91.95
62632;BME280;48703;51.248;-0.546;2023-05-13T09:18:28;102057;;;10.36;91.23
62632;BME280;48703;51.248;-0.546;2023-05-13T09:21:29;102060;;;10.39;91.16
62632;BME280;48703;51.248;-0.546;2023-05-13T09:24:30;102060;;;10.42;91.07
62632;BME280;48703;51.248;-0.546;2023-05-13T09:27:35;102063;;;10.46;90.90
62632;BME280;48703;51.248;-0.546;2023-05-13T09:30:34;102065;;;10.47;90.22
62632;BME280;48703;51.248;-0.546;2023-05-13T09:33:36;102069;;;10.50;90.58
62632;BME280;48703;51.248;-0.546;2023-05-13T09:36:38;102068;;;10.51;90.69
62632;BME280;48703;51.248;-0.546;2023-05-13T09:39:40;102071;;;10.54;90.21
62632;BME280;48703;51.248;-0.546;2023-05-13T09:42:42;102074;;;10.54;89.88
62632;BME280;48703;51.248;-0.546;2023-05-13T09:45:44;102072;;;10.54;90.04
62632;BME280;48703;51.248;-0.546;2023-05-13T09:48:46;102075;;;10.60;89.69
62632;BME280;48703;51.248;-0.546;2023-05-13T09:51:48;102074;;;10.63;89.34
62632;BME280;48703;51.248;-0.546;2023-05-13T09:54:50;102076;;;10.67;89.82
62632;BME280;48703;51.248;-0.546;2023-05-13T09:57:52;102073;;;10.74;90.07
62632;BME280;48703;51.248;-0.546;2023-05-13T10:00:54;102074;;;10.78;89.72
62632;BME280;48703;51.248;-0.546;2023-05-13T10:03:56;102075;;;10.78;89.32
62632;BME280;48703;51.248;-0.546;2023-05-13T10:06:58;102070;;;10.81;89.17
62632;BME280;48703;51.248;-0.546;2023-05-13T10:10:00;102071;;;10.85;89.16
62632;BME280;48703;51.248;-0.546;2023-05-13T10:13:02;102071;;;10.90;89.18
62632;BME280;48703;51.248;-0.546;2023-05-13T10:16:04;102070;;;10.95;88.97
62632;BME280;48703;51.248;-0.546;2023-05-13T10:19:06;102071;;;10.96;88.13
62632;BME280;48703;51.248;-0.546;2023-05-13T10:22:08;102069;;;10.99;88.17
62632;BME280;48703;51.248;-0.546;2023-05-13T10:25:10;102066;;;11.05;88.22
62632;BME280;48703;51.248;-0.546;2023-05-13T10:28:12;102064;;;11.09;87.46
62632;BME280;48703;51.248;-0.546;2023-05-13T10:31:14;102064;;;11.13;87.90
62632;BME280;48703;51.248;-0.546;2023-05-13T10:34:16;102064;;;11.21;88.03
62632;BME280;48703;51.248;-0.546;2023-05-13T10:37:24;102062;;;11.27;87.50
62632;BME280;48703;51.248;-0.546;2023-05-13T10:40:24;102061;;;11.33;87.61
62632;BME280;48703;51.248;-0.546;2023-05-13T10:43:23;102064;;;11.38;86.76
62632;BME280;48703;51.248;-0.546;2023-05-13T10:46:24;102064;;;11.42;87.30
62632;BME280;48703;51.248;-0.546;2023-05-13T10:49:31;102063;;;11.46;87.25
62632;BME280;48703;51.248;-0.546;2023-05-13T10:52:39;102066;;;11.52;87.08
62632;BME280;48703;51.248;-0.546;2023-05-13T10:55:30;102066;;;11.54;86.59
62632;BME280;48703;51.248;-0.546;2023-05-13T10:58:33;102065;;;11.56;86.36
62632;BME280;48703;51.248;-0.546;2023-05-13T11:01:35;102066;;;11.60;85.70
62632;BME280;48703;51.248;-0.546;2023-05-13T11:04:37;102064;;;11.68;86.57
62632;BME280;48703;51.248;-0.546;2023-05-13T11:07:38;102063;;;11.79;87.30
62632;BME280;48703;51.248;-0.546;2023-05-13T11:10:40;102064;;;11.91;86.30
62632;BME280;48703;51.248;-0.546;2023-05-13T11:13:43;102064;;;11.92;84.95
62632;BME280;48703;51.248;-0.546;2023-05-13T11:16:45;102060;;;12.00;85.92
62632;BME280;48703;51.248;-0.546;2023-05-13T11:19:47;102057;;;12.10;85.48
62632;BME280;48703;51.248;-0.546;2023-05-13T11:22:49;102055;;;12.16;85.14
62632;BME280;48703;51.248;-0.546;2023-05-13T11:26:08;102055;;;12.23;85.11
62632;BME280;48703;51.248;-0.546;2023-05-13T11:28:55;102056;;;12.34;84.65
62632;BME280;48703;51.248;-0.546;2023-05-13T11:31:57;102055;;;12.42;83.95
62632;BME280;48703;51.248;-0.546;2023-05-13T11:34:56;102050;;;12.40;83.57
62632;BME280;48703;51.248;-0.546;2023-05-13T11:37:59;102049;;;12.49;84.08
62632;BME280;48703;51.248;-0.546;2023-05-13T11:41:01;102050;;;12.52;83.33
62632;BME280;48703;51.248;-0.546;2023-05-13T11:44:03;102046;;;12.57;82.94
62632;BME280;48703;51.248;-0.546;2023-05-13T11:47:05;102041;;;12.67;83.72
62632;BME280;48703;51.248;-0.546;2023-05-13T11:50:16;102039;;;12.75;83.48
62632;BME280;48703;51.248;-0.546;2023-05-13T11:53:09;102043;;;12.85;82.05
62632;BME280;48703;51.248;-0.546;2023-05-13T11:56:11;102036;;;12.93;82.57
62632;BME280;48703;51.248;-0.546;2023-05-13T11:59:17;102039;;;13.04;81.80
62632;BME280;48703;51.248;-0.546;2023-05-13T12:02:15;102036;;;13.09;81.15
62632;BME280;48703;51.248;-0.546;2023-05-13T12:05:17;102034;;;13.17;81.78
62632;BME280;48703;51.248;-0.546;2023-05-13T12:08:19;102035;;;13.25;81.28
62632;BME280;48703;51.248;-0.546;2023-05-13T12:11:21;102031;;;13.25;79.69
62632;BME280;48703;51.248;-0.546;2023-05-13T12:14:23;102030;;;13.29;80.72
62632;BME280;48703;51.248;-0.546;2023-05-13T12:17:25;102019;;;13.39;80.83
62632;BME280;48703;51.248;-0.546;2023-05-13T12:20:27;102015;;;13.48;80.57
62632;BME280;48703;51.248;-0.546;2023-05-13T12:23:36;102010;;;13.58;80.22
62632;BME280;48703;51.248;-0.546;2023-05-13T12:26:31;102012;;;13.63;79.74
62632;BME280;48703;51.248;-0.546;2023-05-13T12:29:40;102012;;;13.68;79.30
62632;BME280;48703;51.248;-0.546;2023-05-13T12:32:42;102013;;;13.75;79.82
62632;BME280;48703;51.248;-0.546;2023-05-13T12:35:37;102011;;;13.73;78.06
62632;BME280;48703;51.248;-0.546;2023-05-13T12:38:39;102012;;;13.72;79.09
62632;BME280;48703;51.248;-0.546;2023-05-13T12:41:41;102011;;;13.79;78.40
62632;BME280;48703;51.248;-0.546;2023-05-13T12:44:43;102006;;;13.88;78.49
62632;BME280;48703;51.248;-0.546;2023-05-13T12:47:47;102010;;;13.93;77.45
62632;BME280;48703;51.248;-0.546;2023-05-13T12:50:47;102012;;;14.00;77.83
62632;BME280;48703;51.248;-0.546;2023-05-13T12:53:49;102015;;;14.07;78.21
62632;BME280;48703;51.248;-0.546;2023-05-13T12:56:51;102012;;;14.03;76.74
62632;BME280;48703;51.248;-0.546;2023-05-13T12:59:53;102012;;;14.06;77.11
62632;BME280;48703;51.248;-0.546;2023-05-13T13:02:55;102009;;;14.08;77.19
62632;BME280;48703;51.248;-0.546;2023-05-13T13:05:57;102012;;;14.12;76.89
62632;BME280;48703;51.248;-0.546;2023-05-13T13:08:59;102007;;;14.21;77.92
62632;BME280;48703;51.248;-0.546;2023-05-13T13:12:01;102007;;;14.22;76.26
62632;BME280;48703;51.248;-0.546;2023-05-13T13:15:04;102009;;;14.27;76.74
62632;BME280;48703;51.248;-0.546;2023-05-13T13:18:05;102006;;;14.27;77.49
62632;BME280;48703;51.248;-0.546;2023-05-13T13:21:08;102004;;;14.33;76.91
62632;BME280;48703;51.248;-0.546;2023-05-13T13:24:09;102001;;;14.35;75.56
62632;BME280;48703;51.248;-0.546;2023-05-13T13:27:11;101999;;;14.33;76.06
62632;BME280;48703;51.248;-0.546;2023-05-13T13:30:13;101997;;;14.32;75.14
62632;BME280;48703;51.248;-0.546;2023-05-13T13:33:15;101997;;;14.38;75.83
62632;BME280;48703;51.248;-0.546;2023-05-13T13:36:17;101997;;;14.44;76.17
62632;BME280;48703;51.248;-0.546;2023-05-13T13:39:19;102004;;;14.42;76.50
62632;BME280;48703;51.248;-0.546;2023-05-13T13:42:21;102000;;;14.56;76.35
62632;BME280;48703;51.248;-0.546;2023-05-13T13:45:23;102000;;;14.60;76.03
62632;BME280;48703;51.248;-0.546;2023-05-13T13:48:25;101999;;;14.65;75.22
62632;BME280;48703;51.248;-0.546;2023-05-13T13:51:27;101999;;;14.71;76.50
62632;BME280;48703;51.248;-0.546;2023-05-13T13:54:29;101997;;;14.77;76.05
62632;BME280;48703;51.248;-0.546;2023-05-13T13:57:31;101999;;;14.76;75.23
62632;BME280;48703;51.248;-0.546;2023-05-13T14:00:33;101998;;;14.71;73.99
62632;BME280;48703;51.248;-0.546;2023-05-13T14:03:35;101999;;;14.56;73.53
62632;BME280;48703;51.248;-0.546;2023-05-13T14:06:38;101994;;;14.65;74.13
62632;BME280;48703;51.248;-0.546;2023-05-13T14:09:39;101991;;;14.63;74.00
62632;BME280;48703;51.248;-0.546;2023-05-13T14:12:42;101985;;;14.77;75.63
62632;BME280;48703;51.248;-0.546;2023-05-13T14:15:44;101980;;;14.77;74.72
62632;BME280;48703;51.248;-0.546;2023-05-13T14:18:46;101979;;;14.82;73.91
62632;BME280;48703;51.248;-0.546;2023-05-13T14:21:48;101975;;;14.75;74.20
62632;BME280;48703;51.248;-0.546;2023-05-13T14:24:50;101969;;;14.80;74.23
62632;BME280;48703;51.248;-0.546;2023-05-13T14:27:52;101969;;;14.85;74.75
62632;BME280;48703;51.248;-0.546;2023-05-13T14:30:54;101965;;;14.90;74.04
62632;BME280;48703;51.248;-0.546;2023-05-13T14:33:56;101955;;;14.97;74.50
62632;BME280;48703;51.248;-0.546;2023-05-13T14:36:58;101953;;;15.00;73.78
62632;BME280;48703;51.248;-0.546;2023-05-13T14:40:00;101949;;;15.01;73.88
62632;BME280;48703;51.248;-0.546;2023-05-13T14:43:02;101948;;;14.99;73.93
62632;BME280;48703;51.248;-0.546;2023-05-13T14:46:04;101942;;;14.96;73.16
62632;BME280;48703;51.248;-0.546;2023-05-13T14:49:06;101941;;;15.00;74.21
62632;BME280;48703;51.248;-0.546;2023-05-13T14:52:08;101939;;;15.03;74.56
62632;BME280;48703;51.248;-0.546;2023-05-13T14:55:10;101935;;;15.03;73.99
62632;BME280;48703;51.248;-0.546;2023-05-13T14:58:12;101930;;;15.05;74.70
62632;BME280;48703;51.248;-0.546;2023-05-13T15:01:14;101925;;;15.07;74.74
62632;BME280;48703;51.248;-0.546;2023-05-13T15:04:16;101926;;;15.13;74.95
62632;BME280;48703;51.248;-0.546;2023-05-13T15:07:18;101928;;;15.21;74.26
62632;BME280;48703;51.248;-0.546;2023-05-13T15:10:20;101923;;;15.32;73.72
62632;BME280;48703;51.248;-0.546;2023-05-13T15:13:22;101925;;;15.55;73.54
62632;BME280;48703;51.248;-0.546;2023-05-13T15:16:24;101926;;;15.67;71.32
62632;BME280;48703;51.248;-0.546;2023-05-13T15:19:26;101931;;;15.75;71.51
62632;BME280;48703;51.248;-0.546;2023-05-13T15:22:28;101933;;;15.78;70.55
62632;BME280;48703;51.248;-0.546;2023-05-13T15:25:30;101934;;;15.69;70.33
62632;BME280;48703;51.248;-0.546;2023-05-13T15:28:32;101927;;;15.56;71.71
62632;BME280;48703;51.248;-0.546;2023-05-13T15:31:34;101923;;;15.49;72.48
62632;BME280;48703;51.248;-0.546;2023-05-13T15:34:36;101920;;;15.53;72.04
62632;BME280;48703;51.248;-0.546;2023-05-13T15:37:39;101918;;;15.47;72.21
62632;BME280;48703;51.248;-0.546;2023-05-13T15:40:40;101913;;;15.47;72.53
62632;BME280;48703;51.248;-0.546;2023-05-13T15:43:42;101909;;;15.45;71.92
62632;BME280;48703;51.248;-0.546;2023-05-13T15:46:44;101904;;;15.33;72.58
62632;BME280;48703;51.248;-0.546;2023-05-13T15:49:46;101903;;;15.34;72.52
62632;BME280;48703;51.248;-0.546;2023-05-13T15:52:48;101906;;;15.41;71.98
62632;BME280;48703;51.248;-0.546;2023-05-13T15:55:50;101904;;;15.52;73.24
62632;BME280;48703;51.248;-0.546;2023-05-13T15:58:52;101907;;;15.55;71.44
62632;BME280;48703;51.248;-0.546;2023-05-13T16:01:54;101905;;;15.36;71.44
62632;BME280;48703;51.248;-0.546;2023-05-13T16:04:56;101899;;;15.33;72.65
62632;BME280;48703;51.248;-0.546;2023-05-13T16:07:58;101896;;;15.35;72.55
62632;BME280;48703;51.248;-0.546;2023-05-13T16:11:01;101894;;;15.42;72.54
62632;BME280;48703;51.248;-0.546;2023-05-13T16:14:02;101890;;;15.62;72.40
62632;BME280;48703;51.248;-0.546;2023-05-13T16:17:04;101890;;;15.81;72.79
62632;BME280;48703;51.248;-0.546;2023-05-13T16:20:07;101889;;;15.91;70.57